Time;durP1;ratioP1;P1;durP2;ratioP2;P2;SDS_P1;SDS_P2;PMS_P1;PMS_P2;Temp;Humidity;BMP_temperature;BMP_pressure;BME280_temperature;BME280_humidity;BME280_pressure;Samples;Min_cycle;Max_cycle;Signal;HPM_P1;HPM_P2
2023/01/01 00:01:41;;;;;;;264.25;189.85;;;;;;;6.39;94.33;100979.22;5062727;28;20508;-57
2023/01/01 00:04:13;;;;;;;247.50;174.13;;;;;;;6.47;93.87;100982.19;5071101;28;20209;-56
2023/01/01 00:06:40;;;;;;;229.87;155.20;;;;;;;6.48;93.04;100977.16;5075844;28;20218;-56
2023/01/01 00:11:51;;;;;;;185.93;124.80;;;;;;;6.46;92.98;100981.28;5068531;28;20218;-56
2023/01/01 00:14:19;;;;;;;163.40;111.50;;;;;;;6.48;92.77;100982.25;5068556;28;20235;-56
2023/01/01 00:16:46;;;;;;;160.77;104.53;;;;;;;6.48;92.00;100987.34;5063004;28;20212;-55
2023/01/01 00:19:13;;;;;;;156.20;104.97;;;;;;;6.40;91.70;100995.41;5057877;28;20756;-56
2023/01/01 00:21:40;;;;;;;146.53;98.47;;;;;;;6.38;92.21;100985.09;5075287;28;20199;-57
2023/01/01 00:24:07;;;;;;;136.23;93.07;;;;;;;6.35;92.62;100996.78;5068640;28;20195;-57
2023/01/01 00:26:35;;;;;;;122.50;86.37;;;;;;;6.34;92.52;101000.16;5058654;28;20625;-57
2023/01/01 00:29:03;;;;;;;133.93;82.50;;;;;;;6.06;92.51;100989.16;5054895;28;20202;-57
2023/01/01 00:31:32;;;;;;;127.57;83.03;;;;;;;6.07;93.05;100994.34;5063858;28;20199;-58
2023/01/01 00:33:59;;;;;;;136.00;88.03;;;;;;;6.03;93.63;100991.53;5068754;28;20195;-57
2023/01/01 00:36:27;;;;;;;131.70;86.80;;;;;;;6.05;93.77;100998.47;5074571;28;20492;-57
2023/01/01 00:38:54;;;;;;;95.30;64.77;;;;;;;6.02;93.39;100997.41;5074952;28;20196;-57
2023/01/01 00:41:21;;;;;;;99.17;62.80;;;;;;;6.01;92.72;101008.44;5074805;28;20730;-56
2023/01/01 00:43:48;;;;;;;97.03;63.33;;;;;;;6.01;92.47;101005.88;5074962;28;20198;-57
2023/01/01 00:46:15;;;;;;;93.77;61.47;;;;;;;5.98;92.55;101004.03;5072272;28;20199;-57
2023/01/01 00:48:43;;;;;;;91.83;57.47;;;;;;;5.97;92.92;101006.47;5075120;28;20688;-57
2023/01/01 00:51:10;;;;;;;91.40;59.63;;;;;;;5.95;93.38;101011.50;5074492;28;20203;-57
2023/01/01 00:53:39;;;;;;;85.27;56.93;;;;;;;5.94;94.03;101020.81;5074905;28;20197;-56
2023/01/01 00:56:07;;;;;;;93.50;60.17;;;;;;;5.91;93.48;101014.63;5074431;28;20430;-57
2023/01/01 00:58:33;;;;;;;87.83;57.27;;;;;;;5.90;93.44;101015.44;5074370;28;20188;-56
2023/01/01 01:01:00;;;;;;;80.60;54.90;;;;;;;5.92;93.06;101021.50;5054710;28;20658;-56
2023/01/01 01:03:30;;;;;;;83.80;55.77;;;;;;;5.88;93.20;101017.00;5054513;28;20237;-56
2023/01/01 01:06:00;;;;;;;84.67;53.57;;;;;;;5.90;93.49;101018.88;5054633;28;20199;-56
2023/01/01 01:08:27;;;;;;;83.87;54.10;;;;;;;5.84;93.03;101015.94;5054301;28;20225;-57
2023/01/01 01:10:54;;;;;;;82.87;52.77;;;;;;;5.84;92.75;101015.03;5053510;28;20189;-56
2023/01/01 01:13:22;;;;;;;92.23;55.37;;;;;;;5.83;93.48;101013.28;5068935;28;20222;-57
2023/01/01 01:15:48;;;;;;;83.07;53.90;;;;;;;5.84;92.77;101017.59;5074857;28;20198;-57
2023/01/01 01:18:15;;;;;;;84.70;53.50;;;;;;;5.78;92.83;101014.69;5074157;28;20197;-56
2023/01/01 01:20:50;;;;;;;83.07;54.23;;;;;;;5.74;92.54;100993.22;5074222;28;20698;-57
2023/01/01 01:23:18;;;;;;;78.70;53.83;;;;;;;5.78;92.16;101007.03;5074230;28;20194;-57
2023/01/01 01:25:45;;;;;;;75.60;54.10;;;;;;;5.81;92.71;101007.22;5074798;28;20217;-57
2023/01/01 01:28:11;;;;;;;73.83;50.37;;;;;;;5.69;93.04;100986.97;5074372;28;20233;-56
2023/01/01 01:30:39;;;;;;;77.67;52.40;;;;;;;5.66;92.82;100985.94;5074049;28;20190;-56
2023/01/01 01:33:05;;;;;;;83.07;62.63;;;;;;;5.76;92.68;101006.94;5073205;28;20442;-56
2023/01/01 01:35:33;;;;;;;76.93;55.67;;;;;;;5.82;93.07;100997.09;5072992;28;20253;-57
2023/01/01 01:37:59;;;;;;;79.40;55.27;;;;;;;5.84;92.49;100999.75;5054397;28;20194;-57
2023/01/01 01:40:27;;;;;;;74.83;53.93;;;;;;;5.85;91.61;100997.31;5054307;28;20187;-56
2023/01/01 01:42:54;;;;;;;76.87;53.03;;;;;;;5.80;92.22;100993.56;5054308;28;20195;-56
2023/01/01 01:45:21;;;;;;;75.00;49.97;;;;;;;5.83;92.47;101000.53;5053556;28;20253;-56
2023/01/01 01:47:51;;;;;;;81.03;51.97;;;;;;;5.82;91.96;100986.88;5053590;28;20257;-56
2023/01/01 01:50:24;;;;;;;71.87;49.67;;;;;;;5.37;92.17;100912.81;5053782;28;20282;-57
2023/01/01 01:53:01;;;;;;;75.60;50.00;;;;;;;5.77;92.21;100989.97;5055922;28;20196;-58
2023/01/01 01:55:32;;;;;;;68.57;51.60;;;;;;;5.77;92.43;100988.28;5065534;28;20199;-56
2023/01/01 01:58:00;;;;;;;75.77;51.70;;;;;;;5.77;92.43;100984.84;5073274;28;20237;-57
2023/01/01 02:00:26;;;;;;;75.40;51.63;;;;;;;5.70;91.85;100978.53;5073257;28;20190;-57
2023/01/01 02:02:58;;;;;;;79.27;49.77;;;;;;;5.68;92.55;100982.66;5073877;28;20198;-57
2023/01/01 02:05:25;;;;;;;77.73;53.97;;;;;;;5.68;92.14;100986.88;5072520;28;20683;-57
2023/01/01 02:07:53;;;;;;;73.60;51.87;;;;;;;5.68;92.53;100986.88;5073051;28;20221;-57
2023/01/01 02:10:20;;;;;;;81.30;53.10;;;;;;;5.66;92.12;100994.44;5073189;28;20566;-57
2023/01/01 02:12:48;;;;;;;72.73;51.33;;;;;;;5.63;92.48;100998.50;5073280;28;20194;-56
2023/01/01 02:15:15;;;;;;;79.73;54.10;;;;;;;5.61;92.72;100997.50;5072932;28;20231;-56
2023/01/01 02:17:52;;;;;;;78.90;52.90;;;;;;;5.59;92.63;100996.53;5072979;28;20257;-57
2023/01/01 02:20:29;;;;;;;82.07;54.60;;;;;;;5.64;92.44;101000.22;5056882;28;20652;-57
2023/01/01 02:23:26;;;;;;;66.03;47.17;;;;;;;5.64;92.14;100996.00;5066364;28;20244;-57
2023/01/01 02:26:23;;;;;;;55.53;40.93;;;;;;;5.64;92.86;100988.38;5045450;28;20597;-57
2023/01/01 02:28:59;;;;;;;66.37;44.70;;;;;;;5.69;92.45;100996.28;5070371;28;20287;-56
2023/01/01 02:31:29;;;;;;;61.10;42.80;;;;;;;5.65;91.51;100996.91;5068233;28;20654;-56
2023/01/01 02:34:01;;;;;;;62.50;43.57;;;;;;;5.42;91.90;100981.88;5064511;28;20788;-56
2023/01/01 02:36:30;;;;;;;63.37;42.57;;;;;;;5.56;92.41;100991.25;5061735;28;20556;-56
2023/01/01 02:39:00;;;;;;;64.60;44.37;;;;;;;5.39;92.14;100969.84;5067838;28;20201;-57
2023/01/01 02:41:31;;;;;;;61.50;43.27;;;;;;;5.56;92.23;100998.88;5052810;28;20184;-56
2023/01/01 02:43:59;;;;;;;64.07;43.43;;;;;;;5.61;92.12;101006.03;5068095;28;20192;-57
2023/01/01 02:46:31;;;;;;;58.80;41.43;;;;;;;5.48;92.30;100989.91;5052544;28;20665;-57
2023/01/01 02:48:58;;;;;;;59.43;44.33;;;;;;;5.55;92.63;101000.56;5060367;28;20213;-57
2023/01/01 02:51:32;;;;;;;64.50;45.80;;;;;;;5.55;92.75;100999.69;5055277;28;20206;-56
2023/01/01 02:54:05;;;;;;;60.67;43.33;;;;;;;5.43;91.99;100978.56;5056769;28;20198;-57
2023/01/01 02:56:38;;;;;;;68.07;50.08;;;;;;;5.54;92.47;100992.81;5071880;28;20433;-57
2023/01/01 03:02:11;;;;;;;65.57;43.10;;;;;;;5.65;91.86;101000.34;5058263;28;20798;-56
2023/01/01 03:04:48;;;;;;;58.37;41.37;;;;;;;5.63;91.89;100995.94;5056020;28;20210;-56
2023/01/01 03:07:24;;;;;;;61.50;42.00;;;;;;;5.63;91.98;100993.38;5058536;28;20277;-55
2023/01/01 03:09:59;;;;;;;60.50;40.13;;;;;;;5.44;92.43;100962.50;5066802;28;20586;-56
2023/01/01 03:12:39;;;;;;;58.67;40.57;;;;;;;5.52;92.76;100985.06;5072024;28;20565;-57
2023/01/01 03:15:18;;;;;;;57.60;40.90;;;;;;;5.58;92.72;100990.53;5071436;28;20226;-57
2023/01/01 03:17:51;;;;;;;58.50;40.30;;;;;;;5.55;92.07;100990.34;5071812;28;20181;-57
2023/01/01 03:20:23;;;;;;;58.17;41.00;;;;;;;5.53;92.55;100999.59;5061673;28;20193;-57
2023/01/01 03:22:52;;;;;;;60.03;41.87;;;;;;;5.44;92.35;100976.09;5063195;28;20202;-57
2023/01/01 03:25:23;;;;;;;58.77;40.70;;;;;;;5.50;92.84;100995.97;5051805;28;20190;-57
2023/01/01 03:27:56;;;;;;;57.70;41.33;;;;;;;5.51;92.55;100995.19;5051975;28;20302;-56
2023/01/01 03:30:25;;;;;;;67.97;41.07;;;;;;;5.52;93.10;100995.25;5052055;28;20191;-56
2023/01/01 03:33:03;;;;;;;61.63;41.03;;;;;;;5.49;92.84;100994.22;5051706;28;20192;-57
2023/01/01 03:35:37;;;;;;;59.43;41.03;;;;;;;5.28;92.39;100969.19;5070263;28;20209;-56
2023/01/01 03:38:08;;;;;;;55.70;41.93;;;;;;;5.44;93.17;101000.72;5071893;28;20618;-56
2023/01/01 03:40:38;;;;;;;60.07;41.10;;;;;;;5.39;92.82;101000.41;5071926;28;20201;-56
2023/01/01 03:43:11;;;;;;;62.27;43.37;;;;;;;5.38;92.36;101005.44;5071692;28;20244;-59
2023/01/01 03:45:43;;;;;;;63.73;45.33;;;;;;;5.41;93.71;101001.41;5053519;28;20197;-55
2023/01/01 03:48:11;;;;;;;63.30;43.37;;;;;;;5.26;93.18;100978.41;5061626;28;20223;-56
2023/01/01 03:50:53;;;;;;;67.43;45.23;;;;;;;5.46;93.97;101006.78;5071696;28;20653;-56
2023/01/01 03:53:32;;;;;;;65.87;45.37;;;;;;;5.45;93.98;101013.53;5060936;28;20630;-56
2023/01/01 03:56:08;;;;;;;58.93;43.97;;;;;;;5.46;93.79;101004.22;5051760;28;20355;-55
2023/01/01 03:58:40;;;;;;;71.87;45.83;;;;;;;5.44;93.38;101010.91;5056405;28;20198;-56
2023/01/01 04:01:13;;;;;;;63.90;44.63;;;;;;;5.39;92.92;101013.16;5071637;28;20195;-56
2023/01/01 04:03:41;;;;;;;66.37;45.23;;;;;;;5.37;93.72;101019.84;5057952;28;20201;-56
2023/01/01 04:06:09;;;;;;;65.73;46.73;;;;;;;5.34;94.06;101015.44;5051614;28;20667;-57
2023/01/01 04:08:36;;;;;;;69.53;46.03;;;;;;;5.32;94.31;101014.47;5051640;28;20226;-56
2023/01/01 04:12:00;;;;;;;57.43;40.87;;;;;;;5.36;94.10;101006.22;5051417;28;20236;-56
2023/01/01 04:13:55;;;;;;;72.40;50.45;;;;;;;5.40;94.21;101003.84;5051051;28;20518;-56
2023/01/01 04:16:23;;;;;;;71.13;48.37;;;;;;;5.29;94.56;101008.31;5051495;28;20659;-56
2023/01/01 04:18:50;;;;;;;94.20;53.67;;;;;;;5.20;93.59;100997.53;5051526;28;20654;-55
2023/01/01 04:21:17;;;;;;;87.00;51.07;;;;;;;5.31;94.03;101006.72;5051549;28;20196;-57
2023/01/01 04:23:44;;;;;;;65.40;43.67;;;;;;;5.34;93.53;101019.66;5051405;28;20194;-57
2023/01/01 04:26:13;;;;;;;54.37;38.53;;;;;;;5.33;93.89;101016.22;5051469;28;20191;-56
2023/01/01 04:28:40;;;;;;;62.23;41.63;;;;;;;5.35;94.54;101014.66;5051451;28;20215;-56
2023/01/01 04:31:08;;;;;;;63.97;44.23;;;;;;;5.29;94.45;101015.94;5051586;28;20214;-56
2023/01/01 04:33:36;;;;;;;67.00;44.77;;;;;;;5.20;94.99;101011.16;5053923;28;20195;-56
2023/01/01 04:36:05;;;;;;;62.70;43.20;;;;;;;5.23;94.84;101008.81;5064385;28;20680;-56
2023/01/01 04:38:33;;;;;;;60.53;41.70;;;;;;;5.25;94.72;101017.41;5052961;28;20195;-56
2023/01/01 04:41:03;;;;;;;65.47;44.23;;;;;;;5.30;93.95;101010.94;5071434;28;20190;-56
2023/01/01 04:43:31;;;;;;;69.97;52.60;;;;;;;5.24;94.97;100995.28;5067953;28;20437;-56
2023/01/01 04:45:58;;;;;;;65.10;45.20;;;;;;;5.41;93.97;101010.72;5051272;28;20200;-56
2023/01/01 04:48:25;;;;;;;66.63;44.90;;;;;;;5.46;93.48;101012.75;5060888;28;20219;-57
2023/01/01 04:50:58;;;;;;;68.05;47.72;;;;;;;5.30;92.76;100980.34;5054382;28;20497;-56
2023/01/01 04:53:25;;;;;;;68.43;45.80;;;;;;;5.44;92.96;101005.81;5054842;28;20680;-56
2023/01/01 04:55:52;;;;;;;67.60;45.40;;;;;;;5.38;92.95;101001.22;5070862;28;20200;-56
2023/01/01 04:58:19;;;;;;;65.37;45.57;;;;;;;5.35;92.89;101003.59;5074781;28;20195;-55
2023/01/01 05:00:49;;;;;;;64.23;44.33;;;;;;;5.27;92.66;101003.09;5062746;28;20244;-57
2023/01/01 05:03:16;;;;;;;70.60;45.10;;;;;;;5.30;93.25;101010.94;5075238;28;20213;-56
2023/01/01 05:05:42;;;;;;;68.13;44.20;;;;;;;5.29;93.08;101011.75;5074409;28;20193;-55
2023/01/01 05:08:10;;;;;;;62.90;43.17;;;;;;;5.25;92.99;101014.88;5071434;28;20228;-56
2023/01/01 05:10:37;;;;;;;78.25;58.65;;;;;;;5.11;93.77;100991.91;5073859;28;20487;-56
2023/01/01 05:13:07;;;;;;;72.60;52.70;;;;;;;5.24;93.37;101022.44;5074400;28;20684;-56
2023/01/01 05:15:36;;;;;;;70.93;51.20;;;;;;;5.19;93.53;101028.91;5074822;28;20305;-56
2023/01/01 05:18:03;;;;;;;71.67;47.27;;;;;;;5.18;93.41;101030.59;5074387;28;20198;-56
2023/01/01 05:20:30;;;;;;;68.97;45.27;;;;;;;5.09;93.08;101040.19;5074159;28;20198;-56
2023/01/01 05:22:56;;;;;;;72.30;47.13;;;;;;;5.05;93.27;101032.28;5074115;28;20192;-56
2023/01/01 05:25:25;;;;;;;63.27;44.90;;;;;;;4.90;93.36;101013.47;5076589;28;20689;-57
2023/01/01 05:27:54;;;;;;;63.47;46.23;;;;;;;4.97;93.23;101039.41;5074148;28;20202;-57
2023/01/01 05:30:21;;;;;;;67.40;43.93;;;;;;;4.97;94.28;101043.66;5053490;28;20195;-56
2023/01/01 05:32:48;;;;;;;65.93;44.07;;;;;;;4.89;93.20;101050.78;5053880;28;20193;-56
2023/01/01 05:35:15;;;;;;;58.10;42.87;;;;;;;4.75;93.67;101036.31;5053912;28;20189;-57
2023/01/01 05:37:42;;;;;;;64.63;45.40;;;;;;;4.84;93.90;101052.16;5053999;28;20206;-56
2023/01/01 05:40:10;;;;;;;65.17;44.87;;;;;;;4.84;93.83;101054.72;5066821;28;20207;-57
2023/01/01 05:42:38;;;;;;;70.67;46.23;;;;;;;4.87;93.64;101048.94;5073904;28;20194;-57
2023/01/01 05:45:05;;;;;;;63.17;45.00;;;;;;;4.86;93.08;101053.16;5073879;28;20199;-57
2023/01/01 05:47:32;;;;;;;71.88;54.75;;;;;;;4.89;94.00;101053.31;5072702;28;20434;-56
2023/01/01 05:49:59;;;;;;;73.40;50.93;;;;;;;4.97;93.37;101053.84;5074001;28;20212;-56
2023/01/01 05:52:26;;;;;;;69.50;49.60;;;;;;;4.93;93.07;101055.31;5073527;28;20193;-56
2023/01/01 05:54:52;;;;;;;63.87;45.83;;;;;;;4.96;93.58;101059.69;5073603;28;20198;-56
2023/01/01 05:57:19;;;;;;;63.20;45.13;;;;;;;4.96;93.71;101057.16;5073030;28;20634;-56
2023/01/01 05:59:47;;;;;;;70.37;46.40;;;;;;;4.97;93.75;101062.34;5071948;28;20285;-56
2023/01/01 06:02:14;;;;;;;55.70;41.10;;;;;;;4.98;93.84;101064.09;5073498;28;20194;-56
2023/01/01 06:04:41;;;;;;;66.43;45.23;;;;;;;4.93;93.71;101044.22;5072697;28;20204;-56
2023/01/01 06:07:08;;;;;;;70.07;46.10;;;;;;;4.95;93.69;101060.47;5071266;28;20196;-57
2023/01/01 06:09:34;;;;;;;65.73;44.67;;;;;;;4.98;93.15;101064.09;5053008;28;20234;-56
2023/01/01 06:12:01;;;;;;;64.97;45.13;;;;;;;4.94;92.90;101051.97;5053286;28;20193;-56
2023/01/01 06:14:28;;;;;;;65.73;45.27;;;;;;;4.97;93.06;101053.84;5053214;28;20653;-57
2023/01/01 06:16:56;;;;;;;68.43;44.77;;;;;;;4.98;93.48;101061.56;5053080;28;20563;-57
2023/01/01 06:19:23;;;;;;;62.53;45.30;;;;;;;5.04;93.21;101049.22;5070382;28;20218;-57
2023/01/01 06:21:50;;;;;;;69.03;44.93;;;;;;;5.08;92.92;101051.16;5069207;28;20259;-57
2023/01/01 06:24:19;;;;;;;68.80;44.40;;;;;;;5.16;92.35;101039.81;5069937;28;20186;-56
2023/01/01 06:26:46;;;;;;;69.13;46.40;;;;;;;5.18;92.22;101039.88;5070145;28;20247;-56
2023/01/01 06:29:13;;;;;;;60.80;44.43;;;;;;;5.18;92.36;101038.22;5071772;28;20293;-56
2023/01/01 06:31:40;;;;;;;66.30;46.23;;;;;;;5.20;92.21;101031.53;5068304;28;20651;-56
2023/01/01 06:34:08;;;;;;;61.30;45.63;;;;;;;5.33;91.98;101044.25;5068857;28;20210;-56
2023/01/01 06:36:35;;;;;;;70.93;47.87;;;;;;;5.35;91.75;101041.81;5052756;28;20202;-56
2023/01/01 06:39:03;;;;;;;64.83;45.53;;;;;;;5.32;91.08;101039.97;5063511;28;20245;-56
2023/01/01 06:41:30;;;;;;;66.53;45.30;;;;;;;5.64;91.23;101051.22;5070323;28;20207;-56
2023/01/01 06:43:58;;;;;;;72.83;48.50;;;;;;;6.41;90.79;101054.19;5069411;28;20183;-56
2023/01/01 06:46:26;;;;;;;73.27;49.50;;;;;;;6.48;87.04;101050.34;5072422;28;20715;-56
2023/01/01 06:48:55;;;;;;;68.57;48.57;;;;;;;6.31;86.73;101053.59;5071605;28;20218;-56
2023/01/01 06:51:25;;;;;;;72.30;53.20;;;;;;;5.70;86.65;100970.88;5072533;28;20216;-56
2023/01/01 06:53:53;;;;;;;88.53;56.53;;;;;;;6.48;87.11;101066.50;5072345;28;20649;-56
2023/01/01 06:56:20;;;;;;;80.43;56.57;;;;;;;7.28;85.45;101062.50;5071529;28;20191;-56
2023/01/01 06:58:47;;;;;;;89.67;65.03;;;;;;;7.86;80.52;101055.34;5071730;28;20872;-56
2023/01/01 07:01:17;;;;;;;86.50;59.07;;;;;;;7.83;78.97;101050.94;5072706;28;20191;-56
2023/01/01 07:03:45;;;;;;;96.23;67.97;;;;;;;7.50;79.07;101074.75;5072156;28;20199;-57
2023/01/01 07:06:12;;;;;;;84.37;58.47;;;;;;;7.09;80.50;101075.94;5072115;28;20195;-57
2023/01/01 07:08:40;;;;;;;71.27;49.53;;;;;;;6.79;82.24;101078.47;5071616;28;20215;-56
2023/01/01 07:11:06;;;;;;;71.10;51.53;;;;;;;6.64;83.87;101070.84;5071635;28;20251;-56
2023/01/01 07:13:33;;;;;;;79.33;53.30;;;;;;;6.81;84.86;101067.53;5072098;28;20193;-56
2023/01/01 07:16:00;;;;;;;76.80;54.37;;;;;;;7.01;84.39;101064.44;5072204;28;20649;-56
2023/01/01 07:18:27;;;;;;;65.27;48.93;;;;;;;6.99;83.35;101067.69;5072117;28;20194;-57
2023/01/01 07:20:55;;;;;;;74.43;50.80;;;;;;;6.76;83.04;101073.19;5071943;28;20666;-56
2023/01/01 07:23:22;;;;;;;71.77;52.33;;;;;;;6.72;84.39;101071.25;5072202;28;20199;-57
2023/01/01 07:25:52;;;;;;;69.73;51.13;;;;;;;6.71;85.15;101072.94;5072594;28;20559;-57
2023/01/01 07:28:19;;;;;;;69.37;46.77;;;;;;;6.72;85.29;101066.16;5071994;28;20662;-57
2023/01/01 07:30:46;;;;;;;67.00;46.17;;;;;;;6.76;85.60;101065.50;5071823;28;20195;-57
2023/01/01 07:33:14;;;;;;;61.93;43.83;;;;;;;6.80;85.09;101070.03;5071833;28;20244;-57
2023/01/01 07:35:43;;;;;;;55.97;40.90;;;;;;;6.91;85.37;101071.50;5072002;28;20191;-55
2023/01/01 07:38:10;;;;;;;52.07;39.23;;;;;;;6.97;85.00;101070.19;5071755;28;20665;-56
2023/01/01 07:40:37;;;;;;;57.67;40.10;;;;;;;7.04;84.76;101073.94;5071883;28;20195;-57
2023/01/01 07:43:06;;;;;;;52.90;40.13;;;;;;;7.09;84.78;101072.50;5071833;28;20190;-57
2023/01/01 07:45:32;;;;;;;51.17;38.47;;;;;;;7.18;84.58;101070.47;5071911;28;20187;-57
2023/01/01 07:48:00;;;;;;;50.60;37.20;;;;;;;7.25;84.37;101079.38;5071755;28;20194;-57
2023/01/01 07:50:29;;;;;;;51.37;38.53;;;;;;;7.33;84.22;101076.44;5071560;28;20693;-57
2023/01/01 07:52:56;;;;;;;48.53;38.13;;;;;;;7.38;84.05;101079.22;5071642;28;20201;-57
2023/01/01 07:55:23;;;;;;;52.63;38.47;;;;;;;7.46;83.82;101088.19;5072039;28;20191;-57
2023/01/01 07:57:49;;;;;;;46.83;37.03;;;;;;;7.54;83.59;101092.91;5070768;28;20657;-57
2023/01/01 08:00:20;;;;;;;73.13;52.50;;;;;;;7.55;83.13;101093.81;5071659;28;20194;-56
2023/01/01 08:02:47;;;;;;;78.53;50.83;;;;;;;7.53;83.09;101091.16;5072271;28;20313;-56
2023/01/01 08:05:14;;;;;;;71.23;49.20;;;;;;;7.64;82.69;101099.38;5071779;28;20542;-57
2023/01/01 08:07:45;;;;;;;59.17;44.17;;;;;;;7.71;82.69;101102.38;5071850;28;20269;-56
2023/01/01 08:10:12;;;;;;;60.53;42.33;;;;;;;7.77;82.61;101100.94;5069457;28;20214;-57
2023/01/01 08:12:41;;;;;;;42.73;32.10;;;;;;;7.80;82.67;101103.66;5071402;28;20225;-57
2023/01/01 08:15:10;;;;;;;42.13;31.43;;;;;;;7.84;82.65;101111.56;5071521;28;20223;-57
2023/01/01 08:17:39;;;;;;;40.80;31.23;;;;;;;7.89;82.40;101115.25;5069973;28;20203;-57
2023/01/01 08:20:07;;;;;;;37.90;29.10;;;;;;;7.98;82.22;101109.72;5070752;28;20237;-58
2023/01/01 08:22:34;;;;;;;37.93;30.07;;;;;;;8.06;81.70;101113.56;5074425;28;20257;-57
2023/01/01 08:25:01;;;;;;;40.83;31.77;;;;;;;8.13;81.18;101105.44;5059164;28;20192;-58
2023/01/01 08:27:28;;;;;;;45.22;37.55;;;;;;;8.14;81.24;101117.41;5061933;28;20454;-57
2023/01/01 08:29:58;;;;;;;43.23;32.20;;;;;;;8.28;80.30;101119.91;5062335;28;20216;-57
2023/01/01 08:32:24;;;;;;;40.53;32.27;;;;;;;8.38;79.97;101116.13;5057193;28;20191;-57
2023/01/01 08:34:53;;;;;;;42.57;31.40;;;;;;;8.52;79.85;101110.03;5053151;28;20195;-57
2023/01/01 08:37:22;;;;;;;40.07;31.00;;;;;;;8.58;79.64;101115.47;5052994;28;20262;-57
2023/01/01 08:39:49;;;;;;;37.60;29.20;;;;;;;8.56;78.81;101101.69;5060801;28;20351;-57
2023/01/01 08:42:16;;;;;;;36.07;28.10;;;;;;;8.73;78.04;101120.47;5073273;28;20913;-58
2023/01/01 08:44:43;;;;;;;37.60;31.15;;;;;;;8.78;77.87;101122.47;5073644;28;20438;-58
2023/01/01 08:47:17;;;;;;;41.70;30.63;;;;;;;8.88;77.92;101110.97;5073889;28;20248;-58
2023/01/01 08:49:44;;;;;;;36.53;27.80;;;;;;;8.95;77.43;101105.34;5057294;28;20697;-58
2023/01/01 08:52:12;;;;;;;37.10;26.93;;;;;;;9.05;76.66;101104.09;5053034;28;20196;-58
2023/01/01 08:54:39;;;;;;;37.00;31.38;;;;;;;9.21;76.58;101101.44;5053126;28;20443;-57
2023/01/01 08:57:06;;;;;;;39.90;27.50;;;;;;;9.34;75.53;101103.75;5054488;28;20254;-58
2023/01/01 08:59:33;;;;;;;33.43;25.03;;;;;;;9.43;74.74;101099.94;5074348;28;20245;-58
2023/01/01 09:01:59;;;;;;;30.70;22.53;;;;;;;9.52;73.73;101101.19;5064544;28;20195;-58
2023/01/01 09:04:26;;;;;;;28.53;21.47;;;;;;;9.55;72.58;101101.31;5062548;28;20662;-59
2023/01/01 09:06:53;;;;;;;28.67;20.87;;;;;;;9.54;72.22;101087.59;5061643;28;20249;-58
2023/01/01 09:09:21;;;;;;;26.80;21.17;;;;;;;9.66;71.69;101082.16;5065011;28;20219;-58
2023/01/01 09:11:51;;;;;;;33.77;24.63;;;;;;;9.72;71.12;101079.88;5059453;28;20199;-57
2023/01/01 09:14:19;;;;;;;31.30;23.70;;;;;;;9.84;71.12;101082.97;5062816;28;20224;-58
2023/01/01 09:16:46;;;;;;;33.07;24.40;;;;;;;9.88;70.57;101079.75;5061502;28;20196;-57
2023/01/01 09:19:13;;;;;;;30.90;25.20;;;;;;;9.93;70.72;101073.13;5064139;28;20199;-58
2023/01/01 09:21:40;;;;;;;31.50;27.63;;;;;;;10.05;71.25;101071.09;5070521;28;20460;-57
2023/01/01 09:24:07;;;;;;;28.60;24.37;;;;;;;10.22;69.69;101070.13;5054192;28;20192;-57
2023/01/01 09:26:35;;;;;;;30.27;23.53;;;;;;;10.32;68.65;101067.19;5055891;28;20188;-57
2023/01/01 09:29:02;;;;;;;31.37;24.70;;;;;;;10.41;68.04;101059.81;5073796;28;20188;-57
2023/01/01 09:31:29;;;;;;;32.27;25.63;;;;;;;10.45;67.94;101055.69;5073728;28;20716;-57
2023/01/01 09:33:56;;;;;;;32.83;25.97;;;;;;;10.33;68.17;101027.81;5073186;28;20192;-57
2023/01/01 09:36:30;;;;;;;30.70;24.17;;;;;;;10.62;67.64;101054.72;5073818;28;20196;-57
2023/01/01 09:38:58;;;;;;;31.20;24.30;;;;;;;10.59;66.88;101032.34;5073839;28;20677;-57
2023/01/01 09:41:36;;;;;;;32.70;24.13;;;;;;;10.78;66.76;101044.22;5073568;28;20662;-57
2023/01/01 09:44:17;;;;;;;29.43;24.37;;;;;;;10.85;66.54;101043.66;5074097;28;20187;-57
2023/01/01 09:46:44;;;;;;;32.13;25.07;;;;;;;10.95;65.60;101040.63;5073694;28;20188;-56
2023/01/01 09:49:16;;;;;;;35.50;25.53;;;;;;;10.96;65.26;101034.66;5073521;28;20187;-57
2023/01/01 09:51:47;;;;;;;34.97;25.63;;;;;;;10.94;64.72;101026.00;5074272;28;20191;-57
2023/01/01 09:54:24;;;;;;;36.20;26.80;;;;;;;10.87;65.63;101030.88;5073082;28;20650;-56
2023/01/01 09:56:56;;;;;;;33.03;24.53;;;;;;;10.77;65.00;101029.59;5073662;28;20209;-57
2023/01/01 09:59:25;;;;;;;30.13;24.10;;;;;;;10.82;64.47;101030.69;5073670;28;20336;-56
2023/01/01 10:01:59;;;;;;;34.80;25.10;;;;;;;10.92;65.05;101031.91;5073407;28;20196;-58
2023/01/01 10:04:41;;;;;;;33.47;24.93;;;;;;;11.01;64.71;101032.28;5073046;28;20933;-57
2023/01/01 10:07:15;;;;;;;33.43;24.13;;;;;;;10.99;64.08;101021.03;5073323;28;20256;-57
2023/01/01 10:09:50;;;;;;;34.93;25.83;;;;;;;11.10;64.32;101020.63;5073048;28;20210;-57
2023/01/01 10:12:25;;;;;;;32.77;24.97;;;;;;;10.68;63.57;100925.56;5072717;28;20195;-57
2023/01/01 10:15:01;;;;;;;30.57;25.40;;;;;;;11.30;63.71;101013.69;5068908;28;20755;-58
2023/01/01 10:17:34;;;;;;;35.20;27.03;;;;;;;11.38;63.97;101017.41;5069962;28;20253;-58
2023/01/01 10:20:06;;;;;;;35.13;27.40;;;;;;;11.35;62.73;100998.41;5072074;28;20257;-57
2023/01/01 10:22:36;;;;;;;35.37;27.87;;;;;;;11.49;63.22;101004.94;5072162;28;20191;-58
2023/01/01 10:25:09;;;;;;;33.33;26.60;;;;;;;11.56;62.94;101002.66;5070346;28;20646;-58
2023/01/01 10:27:39;;;;;;;32.40;26.47;;;;;;;11.48;62.72;100998.06;5077088;28;20184;-58
2023/01/01 10:30:15;;;;;;;36.20;27.03;;;;;;;11.45;62.93;100998.81;5070980;28;20690;-57
2023/01/01 10:32:43;;;;;;;35.80;26.27;;;;;;;11.44;62.78;100970.44;5080619;28;20208;-57
2023/01/01 10:35:14;;;;;;;33.33;27.03;;;;;;;11.69;62.47;100992.00;5073615;28;20193;-57
2023/01/01 10:37:42;;;;;;;33.30;26.83;;;;;;;11.78;62.90;100996.63;5072858;28;20617;-57
2023/01/01 10:40:16;;;;;;;34.37;26.17;;;;;;;11.91;61.78;100997.91;5072484;28;20196;-57
2023/01/01 10:42:45;;;;;;;31.20;25.93;;;;;;;11.94;61.61;100988.59;5072635;28;20199;-57
2023/01/01 10:45:15;;;;;;;35.13;26.43;;;;;;;12.01;61.11;100979.38;5071289;28;20187;-58
2023/01/01 10:48:12;;;;;;;30.27;24.23;;;;;;;12.11;60.47;100981.44;5072376;28;20198;-57
2023/01/01 10:50:48;;;;;;;31.80;24.00;;;;;;;12.17;60.31;100972.19;5058837;28;20215;-56
2023/01/01 10:53:30;;;;;;;27.93;23.07;;;;;;;12.21;60.18;100971.50;5070509;28;20195;-57
2023/01/01 10:56:11;;;;;;;29.27;23.30;;;;;;;12.24;59.86;100971.59;5052104;28;20192;-57
2023/01/01 10:58:44;;;;;;;31.00;24.17;;;;;;;12.35;59.85;100959.94;5066034;28;20195;-58
2023/01/01 11:01:19;;;;;;;28.37;22.13;;;;;;;12.37;59.57;100965.13;5062068;28;20199;-57
2023/01/01 11:03:58;;;;;;;28.67;21.67;;;;;;;12.43;59.27;100965.34;5060274;28;20203;-58
2023/01/01 11:06:26;;;;;;;26.63;22.53;;;;;;;12.54;59.40;100960.50;5060806;28;20203;-58
2023/01/01 11:08:55;;;;;;;29.03;22.63;;;;;;;12.60;58.38;100959.03;5068149;28;20571;-58
2023/01/01 11:11:27;;;;;;;29.58;21.90;;;;;;;12.63;58.55;100965.97;5066087;28;20813;-58
2023/01/01 11:13:56;;;;;;;26.73;22.73;;;;;;;12.59;58.04;100962.41;5068993;28;20212;-58
2023/01/01 11:16:25;;;;;;;30.10;20.87;;;;;;;12.69;57.38;100956.69;5071255;28;20674;-57
2023/01/01 11:18:52;;;;;;;25.70;21.17;;;;;;;12.65;57.91;100954.00;5067065;28;20195;-57
2023/01/01 11:21:22;;;;;;;26.37;22.33;;;;;;;12.72;58.01;100954.22;5065784;28;20202;-57
2023/01/01 11:23:51;;;;;;;27.17;20.80;;;;;;;12.81;57.75;100954.50;5068566;28;20185;-58
2023/01/01 11:26:25;;;;;;;25.43;20.70;;;;;;;12.84;57.02;100953.72;5067483;28;20202;-57
2023/01/01 11:29:01;;;;;;;22.43;20.03;;;;;;;12.92;56.85;100944.50;5067610;28;20236;-58
2023/01/01 11:31:34;;;;;;;24.43;20.60;;;;;;;12.98;56.65;100943.00;5062170;28;20230;-57